createdAt,value
2022-10-10T00:01:36.080Z,102132.81
2022-10-10T00:04:06.320Z,102132.38
2022-10-10T00:06:33.931Z,102130.25
2022-10-10T00:09:05.113Z,102136.22
2022-10-10T00:11:32.504Z,102123.97
2022-10-10T00:14:00.035Z,102119.56
2022-10-10T00:16:27.665Z,102125.44
2022-10-10T00:18:55.217Z,102116.44
2022-10-10T00:21:22.415Z,102122.00
2022-10-10T00:23:49.745Z,102119.00
2022-10-10T00:26:19.288Z,102124.84
2022-10-10T00:28:47.692Z,102122.41
2022-10-10T00:31:15.526Z,102116.84
2022-10-10T00:33:42.804Z,102107.94
2022-10-10T00:36:10.533Z,102102.47
2022-10-10T00:38:37.800Z,102115.75
2022-10-10T00:41:06.029Z,102103.78
2022-10-10T00:43:34.669Z,102113.06
2022-10-10T00:46:01.983Z,102104.75
2022-10-10T00:48:37.546Z,102116.28
2022-10-10T00:51:18.921Z,102110.13
2022-10-10T00:54:02.393Z,102104.59
2022-10-10T00:56:37.992Z,102105.75
2022-10-10T00:59:08.753Z,102102.22
2022-10-10T01:01:35.861Z,102105.75
2022-10-10T01:04:06.167Z,102104.56
2022-10-10T01:06:35.779Z,102096.94
2022-10-10T01:09:03.812Z,102092.53
2022-10-10T01:12:00.965Z,102088.06
2022-10-10T01:14:30.540Z,102088.06
2022-10-10T01:17:29.536Z,102090.91
2022-10-10T01:20:37.201Z,102085.44
2022-10-10T01:23:36.166Z,102071.38
2022-10-10T01:26:40.013Z,102082.13
2022-10-10T01:29:39.155Z,102074.06
2022-10-10T01:32:38.149Z,102081.03
2022-10-10T01:35:37.612Z,102076.63
2022-10-10T01:38:45.885Z,102069.59
2022-10-10T01:41:43.426Z,102072.69
2022-10-10T01:44:12.996Z,102066.38
2022-10-10T01:46:40.123Z,102062.31
2022-10-10T01:49:07.437Z,102068.16
2022-10-10T01:52:08.136Z,102073.78
2022-10-10T01:55:18.670Z,102062.50
2022-10-10T01:57:59.706Z,102065.69
2022-10-10T02:00:27.178Z,102065.19
2022-10-10T02:03:00.024Z,102061.88
2022-10-10T02:06:00.649Z,102063.91
2022-10-10T02:08:45.626Z,102050.41
2022-10-10T02:11:13.424Z,102059.22
2022-10-10T02:14:03.114Z,102055.03
2022-10-10T02:16:39.009Z,102050.09
2022-10-10T02:19:14.338Z,102053.44
2022-10-10T02:21:42.801Z,102049.16
2022-10-10T02:24:12.496Z,102045.28
2022-10-10T02:26:44.356Z,102041.41
2022-10-10T02:29:19.516Z,102041.63
2022-10-10T02:32:00.249Z,102043.09
2022-10-10T02:34:38.698Z,102038.41
2022-10-10T02:37:12.629Z,102035.34
2022-10-10T02:39:49.326Z,102036.72
2022-10-10T02:42:21.586Z,102033.41
2022-10-10T02:44:48.747Z,102033.69
2022-10-10T02:47:19.222Z,102031.53
2022-10-10T02:49:53.887Z,102033.94
2022-10-10T02:52:21.203Z,102031.53
2022-10-10T02:54:50.807Z,102035.13
2022-10-10T02:57:18.020Z,102034.28
2022-10-10T02:59:45.198Z,102033.81
2022-10-10T03:02:12.452Z,102026.78
2022-10-10T03:04:40.120Z,102033.09
2022-10-10T03:07:09.293Z,102031.78
2022-10-10T03:09:36.511Z,102031.28
2022-10-10T03:12:04.369Z,102029.34
2022-10-10T03:14:31.579Z,102021.84
2022-10-10T03:16:59.320Z,102023.28
2022-10-10T03:19:26.881Z,102016.72
2022-10-10T03:21:56.560Z,102020.13
2022-10-10T03:24:23.670Z,102022.31
2022-10-10T03:26:50.970Z,102020.94
2022-10-10T03:29:18.301Z,102018.97
2022-10-10T03:31:45.547Z,102016.75
2022-10-10T03:34:12.738Z,102013.19
2022-10-10T03:36:39.830Z,102004.06
2022-10-10T03:39:09.399Z,102006.97
2022-10-10T03:41:41.592Z,102008.13
2022-10-10T03:44:08.767Z,101999.78
2022-10-10T03:46:35.891Z,102008.72
2022-10-10T03:49:03.086Z,102001.09
2022-10-10T03:51:32.464Z,102000.06
2022-10-10T03:53:59.649Z,101998.94
2022-10-10T03:56:26.907Z,101996.19
2022-10-10T03:59:00.704Z,101989.41
2022-10-10T04:01:30.765Z,101987.50
2022-10-10T04:03:58.264Z,101988.22
2022-10-10T04:06:28.359Z,101983.38
2022-10-10T04:08:55.630Z,101976.75
2022-10-10T04:11:23.019Z,101986.91
2022-10-10T04:13:50.201Z,101984.16
2022-10-10T04:16:19.954Z,101985.13
2022-10-10T04:18:47.131Z,101990.38
2022-10-10T04:21:14.289Z,101986.88
2022-10-10T04:23:41.553Z,101990.31
2022-10-10T04:26:09.128Z,101978.38
2022-10-10T04:28:36.650Z,101983.63
2022-10-10T04:31:04.640Z,101980.09
2022-10-10T04:33:31.769Z,101986.97
2022-10-10T04:36:01.446Z,101983.63
2022-10-10T04:38:29.227Z,101981.72
2022-10-10T04:40:56.474Z,101982.91
2022-10-10T04:43:23.902Z,101973.63
2022-10-10T04:45:51.085Z,101980.28
2022-10-10T04:48:18.249Z,101981.28
2022-10-10T04:50:51.072Z,101971.03
2022-10-10T04:53:18.409Z,101969.44
2022-10-10T04:55:50.347Z,101958.81
2022-10-10T04:58:18.410Z,101966.38
2022-10-10T05:00:46.106Z,101973.19
2022-10-10T05:03:13.727Z,101971.03
2022-10-10T05:05:42.063Z,101968.66
2022-10-10T05:08:09.469Z,101953.38
2022-10-10T05:10:39.444Z,101953.34
2022-10-10T05:13:14.553Z,101958.03
2022-10-10T05:15:42.960Z,101954.34
2022-10-10T05:18:10.297Z,101949.09
2022-10-10T05:20:37.548Z,101958.38
2022-10-10T05:23:07.461Z,101950.34
2022-10-10T05:25:34.667Z,101939.84
2022-10-10T05:28:01.720Z,101944.81
2022-10-10T05:30:28.800Z,101939.25
2022-10-10T05:32:56.403Z,101933.78
2022-10-10T05:35:23.515Z,101934.75
2022-10-10T05:37:52.594Z,101931.09
2022-10-10T05:40:19.843Z,101934.44
2022-10-10T05:42:46.915Z,101932.22
2022-10-10T05:45:13.987Z,101928.47
2022-10-10T05:47:41.120Z,101933.84
2022-10-10T05:50:34.617Z,101924.84
2022-10-10T05:53:01.884Z,101931.97
2022-10-10T05:55:29.077Z,101924.06
2022-10-10T05:57:58.700Z,101928.06
2022-10-10T06:00:26.003Z,101933.25
2022-10-10T06:02:53.683Z,101932.66
2022-10-10T06:05:21.173Z,101927.50
2022-10-10T06:08:04.592Z,101925.69
2022-10-10T06:10:44.128Z,101922.91
2022-10-10T06:13:14.997Z,101921.25
2022-10-10T06:15:42.247Z,101920.41
2022-10-10T06:18:09.739Z,101924.63
2022-10-10T06:20:41.359Z,101923.38
2022-10-10T06:23:09.397Z,101920.81
2022-10-10T06:25:41.734Z,101926.25
2022-10-10T06:28:10.712Z,101923.34
2022-10-10T06:30:44.862Z,101915.81
2022-10-10T06:33:13.037Z,101919.56
2022-10-10T06:35:42.894Z,101917.38
2022-10-10T06:38:14.263Z,101915.28
2022-10-10T06:40:41.925Z,101917.78
2022-10-10T06:43:13.045Z,101911.28
2022-10-10T06:45:43.866Z,101913.69
2022-10-10T06:48:13.234Z,101920.22
2022-10-10T06:50:40.522Z,101922.16
2022-10-10T06:53:07.879Z,101922.09
2022-10-10T06:55:35.026Z,101913.81
2022-10-10T06:58:02.278Z,101918.47
2022-10-10T07:00:29.439Z,101912.56
2022-10-10T07:02:56.498Z,101916.81
2022-10-10T07:05:25.860Z,101902.22
2022-10-10T07:07:53.327Z,101901.47
2022-10-10T07:10:20.580Z,101898.34
2022-10-10T07:12:47.661Z,101900.63
2022-10-10T07:15:14.860Z,101894.28
2022-10-10T07:17:44.571Z,101892.19
2022-10-10T07:20:11.772Z,101900.41
2022-10-10T07:22:41.382Z,101889.78
2022-10-10T07:25:08.943Z,101877.56
2022-10-10T07:27:36.084Z,101873.41
2022-10-10T07:30:03.353Z,101873.31
2022-10-10T07:32:32.924Z,101866.63
2022-10-10T07:34:59.976Z,101878.41
2022-10-10T07:37:27.125Z,101857.66
2022-10-10T07:39:54.944Z,101856.91
2022-10-10T07:42:25.231Z,101864.59
2022-10-10T07:44:52.379Z,101852.25
2022-10-10T07:47:19.467Z,101857.00
2022-10-10T07:49:46.509Z,101849.34
2022-10-10T07:52:13.626Z,101854.50
2022-10-10T07:54:40.741Z,101844.63
2022-10-10T07:57:07.836Z,101855.63
2022-10-10T07:59:34.998Z,101840.47
2022-10-10T08:02:02.121Z,101840.19
2022-10-10T08:04:30.054Z,101832.00
2022-10-10T08:06:57.311Z,101828.72
2022-10-10T08:09:24.789Z,101818.81
2022-10-10T08:11:52.153Z,101819.44
2022-10-10T08:14:21.800Z,101814.53
2022-10-10T08:16:53.204Z,101809.31
2022-10-10T08:19:22.756Z,101807.16
2022-10-10T08:21:50.614Z,101798.50
2022-10-10T08:24:20.223Z,101801.28
2022-10-10T08:26:47.603Z,101800.28
2022-10-10T08:29:17.108Z,101794.66
2022-10-10T08:31:44.321Z,101782.34
2022-10-10T08:34:11.795Z,101787.81
2022-10-10T08:36:39.102Z,101784.28
2022-10-10T08:39:08.918Z,101788.44
2022-10-10T08:42:00.751Z,101776.03
2022-10-10T08:44:43.722Z,101773.41
2022-10-10T08:47:10.674Z,101770.09
2022-10-10T08:49:59.333Z,101763.16
2022-10-10T08:53:02.790Z,101758.53
2022-10-10T08:55:38.382Z,101754.50
2022-10-10T08:58:27.013Z,101741.75
2022-10-10T09:01:19.488Z,101759.09
2022-10-10T09:03:53.732Z,101745.59
2022-10-10T09:07:00.671Z,101750.16
2022-10-10T09:09:58.532Z,101750.34
2022-10-10T09:12:33.818Z,101732.63
2022-10-10T09:15:45.785Z,101747.50
2022-10-10T09:19:14.783Z,101742.94
2022-10-10T09:21:46.034Z,101742.00
2022-10-10T09:24:41.106Z,101737.97
2022-10-10T09:27:19.541Z,101733.66
2022-10-10T09:30:18.050Z,101743.19
2022-10-10T09:33:32.112Z,101727.22
2022-10-10T09:36:03.289Z,101739.63
2022-10-10T09:38:44.718Z,101719.81
2022-10-10T09:41:43.763Z,101723.00
2022-10-10T09:44:21.753Z,101705.63
2022-10-10T09:46:51.742Z,101714.88
2022-10-10T09:49:22.586Z,101699.41
2022-10-10T09:51:50.473Z,101708.56
2022-10-10T09:54:19.916Z,101711.16
2022-10-10T09:56:53.714Z,101721.56
2022-10-10T09:59:42.229Z,101716.03
2022-10-10T10:02:21.057Z,101701.53
2022-10-10T10:04:52.754Z,101696.50
2022-10-10T10:07:34.243Z,101681.06
2022-10-10T10:10:22.118Z,101680.19
2022-10-10T10:12:49.953Z,101678.41
2022-10-10T10:15:21.381Z,101661.59
2022-10-10T10:18:17.712Z,101661.53
2022-10-10T10:20:46.094Z,101661.09
2022-10-10T10:23:43.053Z,101648.66
2022-10-10T10:26:30.005Z,101650.06
2022-10-10T10:28:58.351Z,101655.81
2022-10-10T10:31:48.548Z,101637.09
2022-10-10T10:34:46.863Z,101632.41
2022-10-10T10:37:33.052Z,101626.16
2022-10-10T10:40:20.024Z,101625.63
2022-10-10T10:43:11.666Z,101604.84
2022-10-10T10:45:47.731Z,101616.09
2022-10-10T10:48:40.657Z,101611.78
2022-10-10T10:51:36.519Z,101625.72
2022-10-10T10:54:52.613Z,101610.19
2022-10-10T11:01:23.156Z,101578.69
2022-10-10T11:05:15.770Z,101591.16
2022-10-10T11:07:20.074Z,101595.34
2022-10-10T11:10:14.004Z,101582.16
2022-10-10T11:13:29.204Z,101594.75
2022-10-10T11:16:46.903Z,101570.34
2022-10-10T11:19:14.337Z,101575.59
2022-10-10T11:22:02.013Z,101565.22
2022-10-10T11:24:41.019Z,101553.97
2022-10-10T11:27:27.004Z,101560.25
2022-10-10T11:30:04.496Z,101540.44
2022-10-10T11:33:19.969Z,101543.31
2022-10-10T11:36:06.996Z,101519.19
2022-10-10T11:38:52.706Z,101539.97
2022-10-10T11:41:40.206Z,101523.41
2022-10-10T11:44:27.573Z,101518.63
2022-10-10T11:47:16.810Z,101509.91
2022-10-10T11:50:13.781Z,101509.69
2022-10-10T11:53:30.528Z,101508.91
2022-10-10T11:56:04.222Z,101507.72
2022-10-10T11:58:40.106Z,101492.06
2022-10-10T12:01:33.081Z,101479.22
2022-10-10T12:04:02.667Z,101493.59
2022-10-10T12:06:43.382Z,101486.50
2022-10-10T12:09:23.023Z,101485.75
2022-10-10T12:12:28.666Z,101462.00
2022-10-10T12:15:02.205Z,101498.59
2022-10-10T12:17:34.332Z,101476.41
2022-10-10T12:20:27.793Z,101468.41
2022-10-10T12:23:31.683Z,101461.19
2022-10-10T12:25:59.791Z,101449.88
2022-10-10T12:28:35.437Z,101456.09
2022-10-10T12:31:05.954Z,101446.53
2022-10-10T12:33:33.221Z,101443.25
2022-10-10T12:36:21.343Z,101441.63
2022-10-10T12:39:11.220Z,101439.25
2022-10-10T12:41:57.264Z,101435.41
2022-10-10T12:44:34.666Z,101430.50
2022-10-10T12:47:17.001Z,101418.63
2022-10-10T12:49:55.198Z,101412.00
2022-10-10T12:52:35.968Z,101421.81
2022-10-10T12:55:19.167Z,101420.44
2022-10-10T12:57:48.903Z,101398.84
2022-10-10T13:00:23.752Z,101413.72
2022-10-10T13:02:59.475Z,101408.78
2022-10-10T13:05:32.039Z,101403.78
2022-10-10T13:08:06.115Z,101420.22
2022-10-10T13:10:33.931Z,101412.75
2022-10-10T13:13:19.245Z,101384.13
2022-10-10T13:15:59.690Z,101403.75
2022-10-10T13:19:00.341Z,101378.97
2022-10-10T13:21:35.119Z,101388.63
2022-10-10T13:24:06.177Z,101379.84
2022-10-10T13:26:43.547Z,101362.41
2022-10-10T13:29:36.764Z,101371.44
2022-10-10T13:32:13.829Z,101373.06
2022-10-10T13:34:49.278Z,101378.44
2022-10-10T13:37:20.173Z,101370.69
2022-10-10T13:39:50.784Z,101359.88
2022-10-10T13:42:32.798Z,101365.03
2022-10-10T13:45:03.208Z,101356.28
2022-10-10T13:48:02.710Z,101353.28
2022-10-10T13:50:47.838Z,101349.56
2022-10-10T13:53:29.301Z,101352.06
2022-10-10T13:56:44.185Z,101351.88
2022-10-10T13:59:15.646Z,101348.53
2022-10-10T14:01:49.821Z,101342.97
2022-10-10T14:04:30.460Z,101337.72
2022-10-10T14:07:14.846Z,101334.41
2022-10-10T14:09:53.394Z,101336.34
2022-10-10T14:12:56.536Z,101327.19
2022-10-10T14:15:50.335Z,101318.13
2022-10-10T14:18:20.109Z,101318.25
2022-10-10T14:20:49.061Z,101329.88
2022-10-10T14:23:17.360Z,101309.66
2022-10-10T14:25:48.288Z,101315.69
2022-10-10T14:28:27.469Z,101302.06
2022-10-10T14:30:55.076Z,101311.47
2022-10-10T14:33:22.589Z,101312.22
2022-10-10T14:35:52.780Z,101303.00
2022-10-10T14:38:20.493Z,101302.41
2022-10-10T14:40:51.193Z,101293.03
2022-10-10T14:43:22.611Z,101294.50
2022-10-10T14:45:55.785Z,101285.97
2022-10-10T14:48:25.442Z,101284.41
2022-10-10T14:50:55.575Z,101290.41
2022-10-10T14:53:22.867Z,101286.19
2022-10-10T14:55:55.308Z,101290.66
2022-10-10T14:58:25.785Z,101284.34
2022-10-10T15:00:53.411Z,101285.13
2022-10-10T15:03:21.844Z,101277.88
2022-10-10T15:05:51.470Z,101286.25
2022-10-10T15:08:27.385Z,101279.22
2022-10-10T15:10:58.598Z,101273.56
2022-10-10T15:13:25.707Z,101270.44
2022-10-10T15:15:52.770Z,101275.53
2022-10-10T15:18:47.838Z,101268.78
2022-10-10T15:21:12.235Z,101261.38
2022-10-10T15:23:42.228Z,101262.47
2022-10-10T15:26:09.294Z,101261.63
2022-10-10T15:28:36.775Z,101260.00
2022-10-10T15:31:05.019Z,101263.66
2022-10-10T15:33:32.497Z,101262.03
2022-10-10T15:36:11.493Z,101246.34
2022-10-10T15:38:40.074Z,101237.06
2022-10-10T15:41:10.098Z,101250.59
2022-10-10T15:43:45.452Z,101242.72
2022-10-10T15:46:12.738Z,101249.09
2022-10-10T15:48:42.266Z,101239.97
2022-10-10T15:51:09.615Z,101243.03
2022-10-10T15:53:37.305Z,101250.50
2022-10-10T15:56:16.545Z,101238.34
2022-10-10T15:58:45.008Z,101242.53
2022-10-10T16:01:20.075Z,101240.91
2022-10-10T16:03:49.511Z,101244.19
2022-10-10T16:06:19.598Z,101241.91
2022-10-10T16:08:55.732Z,101245.78
2022-10-10T16:11:31.414Z,101244.00
2022-10-10T16:13:58.484Z,101239.88
2022-10-10T16:16:25.839Z,101240.91
2022-10-10T16:18:52.930Z,101241.69
2022-10-10T16:21:24.881Z,101237.44
2022-10-10T16:23:57.848Z,101242.16
2022-10-10T16:26:32.259Z,101237.25
2022-10-10T16:29:04.960Z,101235.59
2022-10-10T16:31:35.260Z,101237.25
2022-10-10T16:34:03.029Z,101232.13
2022-10-10T16:36:33.546Z,101233.13
2022-10-10T16:39:01.040Z,101239.31
2022-10-10T16:41:49.456Z,101239.31
2022-10-10T16:44:17.694Z,101238.69
2022-10-10T16:46:45.093Z,101229.03
2022-10-10T16:49:17.025Z,101236.84
2022-10-10T16:51:44.216Z,101229.88
2022-10-10T16:54:11.614Z,101234.59
2022-10-10T16:56:41.957Z,101234.78
2022-10-10T16:59:14.384Z,101234.19
2022-10-10T17:01:41.682Z,101229.47
2022-10-10T17:04:08.921Z,101236.84
2022-10-10T17:06:38.569Z,101225.34
2022-10-10T17:09:08.426Z,101233.97
2022-10-10T17:11:38.629Z,101222.69
2022-10-10T17:14:05.974Z,101225.56
2022-10-10T17:19:23.604Z,101221.66
2022-10-10T17:21:50.727Z,101225.34
2022-10-10T17:24:17.955Z,101223.25
2022-10-10T17:26:47.469Z,101221.84
2022-10-10T17:29:14.890Z,101225.56
2022-10-10T17:31:42.065Z,101211.16
2022-10-10T17:34:09.205Z,101214.44
2022-10-10T17:36:38.783Z,101207.91
2022-10-10T17:39:07.617Z,101220.00
2022-10-10T17:41:35.022Z,101212.22
2022-10-10T17:44:02.134Z,101202.34
2022-10-10T17:46:36.089Z,101207.72
2022-10-10T17:49:10.155Z,101196.81
2022-10-10T17:51:39.979Z,101199.47
2022-10-10T17:54:08.236Z,101192.09
2022-10-10T17:56:36.231Z,101183.84
2022-10-10T17:59:06.536Z,101193.31
2022-10-10T18:01:35.512Z,101179.34
2022-10-10T18:04:02.739Z,101192.31
2022-10-10T18:06:31.071Z,101193.31
2022-10-10T18:08:58.998Z,101184.50
2022-10-10T18:11:31.649Z,101181.41
2022-10-10T18:14:02.486Z,101185.72
2022-10-10T18:16:34.245Z,101177.31
2022-10-10T18:19:03.947Z,101176.47
2022-10-10T18:21:31.682Z,101173.38
2022-10-10T18:24:01.221Z,101174.22
2022-10-10T18:26:32.109Z,101171.16
2022-10-10T18:28:59.328Z,101172.81
2022-10-10T18:31:34.082Z,101162.13
2022-10-10T18:34:03.652Z,101158.41
2022-10-10T18:36:35.596Z,101160.47
2022-10-10T18:39:11.826Z,101151.84
2022-10-10T18:41:39.286Z,101150.81
2022-10-10T18:44:14.073Z,101155.75
2022-10-10T18:46:41.412Z,101151.84
2022-10-10T18:49:10.657Z,101145.69
2022-10-10T18:51:41.360Z,101147.25
2022-10-10T18:54:12.024Z,101141.94
2022-10-10T18:56:41.510Z,101145.59
2022-10-10T18:59:16.080Z,101145.19
2022-10-10T19:01:45.753Z,101148.97
2022-10-10T19:04:15.302Z,101146.38
2022-10-10T19:06:43.953Z,101134.09
2022-10-10T19:09:16.099Z,101141.50
2022-10-10T19:11:46.085Z,101133.28
2022-10-10T19:14:18.196Z,101131.22
2022-10-10T19:16:47.523Z,101126.69
2022-10-10T19:19:21.285Z,101124.00
2022-10-10T19:21:49.615Z,101132.84
2022-10-10T19:24:21.265Z,101119.88
2022-10-10T19:26:56.862Z,101119.72
2022-10-10T19:29:26.531Z,101117.59
2022-10-10T19:31:53.888Z,101124.50
2022-10-10T19:34:21.165Z,101124.66
2022-10-10T19:36:48.477Z,101121.34
2022-10-10T19:39:15.693Z,101119.50
2022-10-10T19:41:43.083Z,101125.63
2022-10-10T19:44:10.295Z,101109.00
2022-10-10T19:46:37.891Z,101122.19
2022-10-10T19:49:05.893Z,101124.13
2022-10-10T19:51:33.016Z,101118.09
2022-10-10T19:54:00.225Z,101116.19
2022-10-10T19:56:27.774Z,101120.44
2022-10-10T19:59:00.684Z,101119.66
2022-10-10T20:01:30.585Z,101121.97
2022-10-10T20:03:59.385Z,101114.75
2022-10-10T20:06:27.748Z,101115.28
2022-10-10T20:08:55.212Z,101118.81
2022-10-10T20:11:23.412Z,101119.41
2022-10-10T20:13:55.439Z,101121.78
2022-10-10T20:16:24.326Z,101113.50
2022-10-10T20:18:54.715Z,101123.47
2022-10-10T20:21:31.659Z,101129.50
2022-10-10T20:24:11.073Z,101125.56
2022-10-10T20:26:38.488Z,101118.41
2022-10-10T20:29:06.922Z,101120.50
2022-10-10T20:31:36.449Z,101117.91
2022-10-10T20:34:08.580Z,101116.38
2022-10-10T20:36:36.478Z,101123.53
2022-10-10T20:39:08.416Z,101112.41
2022-10-10T20:41:39.731Z,101120.22
2022-10-10T20:44:10.723Z,101118.69
2022-10-10T20:46:42.408Z,101116.72
2022-10-10T20:49:20.052Z,101119.78
2022-10-10T20:51:55.390Z,101111.31
2022-10-10T20:54:24.463Z,101119.56
2022-10-10T20:56:54.219Z,101118.19
2022-10-10T20:59:24.755Z,101112.03
2022-10-10T21:01:52.219Z,101119.31
2022-10-10T21:04:19.526Z,101109.06
2022-10-10T21:06:51.534Z,101118.72
2022-10-10T21:09:19.676Z,101119.59
2022-10-10T21:11:50.862Z,101121.09
2022-10-10T21:14:19.563Z,101120.22
2022-10-10T21:16:47.003Z,101124.16
2022-10-10T21:19:14.761Z,101129.56
2022-10-10T21:21:42.109Z,101125.06
2022-10-10T21:24:11.459Z,101129.19
2022-10-10T21:26:40.293Z,101136.97
2022-10-10T21:29:07.885Z,101136.59
2022-10-10T21:31:38.808Z,101131.59
2022-10-10T21:34:13.587Z,101138.47
2022-10-10T21:36:41.665Z,101136.97
2022-10-10T21:39:08.988Z,101127.72
2022-10-10T21:41:37.344Z,101125.22
2022-10-10T21:44:04.872Z,101126.50
2022-10-10T21:46:37.097Z,101131.72
2022-10-10T21:49:10.181Z,101126.09
2022-10-10T21:51:43.081Z,101131.44
2022-10-10T21:54:12.916Z,101130.84
2022-10-10T21:56:40.845Z,101139.84
2022-10-10T21:59:11.282Z,101126.81
2022-10-10T22:01:38.784Z,101132.78
2022-10-10T22:04:06.564Z,101140.78
2022-10-10T22:06:34.029Z,101141.34
2022-10-10T22:09:03.135Z,101127.59
2022-10-10T22:11:32.965Z,101138.22
2022-10-10T22:14:02.599Z,101130.94
2022-10-10T22:16:31.909Z,101139.63
2022-10-10T22:19:00.072Z,101134.69
2022-10-10T22:21:31.828Z,101138.38
2022-10-10T22:24:05.096Z,101128.88
2022-10-10T22:26:33.873Z,101129.75
2022-10-10T22:29:04.681Z,101131.31
2022-10-10T22:31:31.875Z,101123.88
2022-10-10T22:33:59.117Z,101126.94
2022-10-10T22:36:26.338Z,101125.13
2022-10-10T22:38:53.533Z,101128.34
2022-10-10T22:41:20.681Z,101123.25
2022-10-10T22:43:48.188Z,101123.03
2022-10-10T22:46:15.806Z,101119.31
2022-10-10T22:48:43.205Z,101122.97
2022-10-10T22:51:16.936Z,101112.72
2022-10-10T22:53:45.756Z,101122.16
2022-10-10T22:56:16.654Z,101112.59
2022-10-10T22:58:47.890Z,101115.16
2022-10-10T23:01:19.184Z,101120.13
2022-10-10T23:03:46.809Z,101118.16
2022-10-10T23:06:15.562Z,101124.00
2022-10-10T23:08:45.273Z,101127.38
2022-10-10T23:11:12.403Z,101127.50
2022-10-10T23:13:39.522Z,101116.91
2022-10-10T23:16:07.572Z,101117.06
2022-10-10T23:18:35.050Z,101125.56
2022-10-10T23:21:02.367Z,101123.56
2022-10-10T23:23:29.705Z,101125.50
2022-10-10T23:25:56.854Z,101124.25
2022-10-10T23:28:24.175Z,101120.13
2022-10-10T23:30:51.376Z,101126.97
2022-10-10T23:33:18.500Z,101119.28
2022-10-10T23:36:03.122Z,101125.44
2022-10-10T23:38:30.904Z,101128.75
2022-10-10T23:40:58.035Z,101130.16
2022-10-10T23:43:25.206Z,101137.97
2022-10-10T23:45:52.824Z,101129.91
2022-10-10T23:48:20.005Z,101119.84
2022-10-10T23:50:49.860Z,101129.75
2022-10-10T23:53:17.056Z,101128.38
2022-10-10T23:55:44.223Z,101124.53
2022-10-10T23:58:11.374Z,101118.78
